createdAt,value
2022-10-19T00:01:36.836Z,11.04
2022-10-19T00:04:39.890Z,11.04
2022-10-19T00:07:42.644Z,11.06
2022-10-19T00:10:45.626Z,10.93
2022-10-19T00:13:48.414Z,10.97
2022-10-19T00:16:53.190Z,10.93
2022-10-19T00:19:56.070Z,10.91
2022-10-19T00:23:00.563Z,10.77
2022-10-19T00:26:03.829Z,10.91
2022-10-19T00:29:08.570Z,10.98
2022-10-19T00:32:11.453Z,10.92
2022-10-19T00:35:14.464Z,10.47
2022-10-19T00:38:18.269Z,10.55
2022-10-19T00:41:22.855Z,10.70
2022-10-19T00:44:31.530Z,10.48
2022-10-19T00:47:34.898Z,10.59
2022-10-19T00:50:37.968Z,10.72
2022-10-19T00:53:41.666Z,10.82
2022-10-19T00:56:46.826Z,10.77
2022-10-19T00:59:50.019Z,10.82
2022-10-19T01:02:52.845Z,10.66
2022-10-19T01:05:56.028Z,10.72
2022-10-19T01:08:58.837Z,10.65
2022-10-19T01:12:20.720Z,10.67
2022-10-19T01:15:36.552Z,10.71
2022-10-19T01:18:41.715Z,10.75
2022-10-19T01:22:05.688Z,10.94
2022-10-19T01:25:24.043Z,10.99
2022-10-19T01:29:14.651Z,10.77
2022-10-19T01:32:29.781Z,10.68
2022-10-19T01:35:50.894Z,10.72
2022-10-19T01:39:00.249Z,10.69
2022-10-19T01:42:08.991Z,10.77
2022-10-19T01:45:18.176Z,10.98
2022-10-19T01:48:25.230Z,10.99
2022-10-19T01:51:34.551Z,11.34
2022-10-19T01:54:44.015Z,11.59
2022-10-19T01:57:49.539Z,11.66
2022-10-19T02:00:53.468Z,11.63
2022-10-19T02:03:57.635Z,11.62
2022-10-19T02:07:02.322Z,11.61
2022-10-19T02:10:05.321Z,11.62
2022-10-19T02:13:08.658Z,11.60
2022-10-19T02:16:17.968Z,11.57
2022-10-19T02:19:25.378Z,11.52
2022-10-19T02:22:28.885Z,11.47
2022-10-19T02:25:33.032Z,11.50
2022-10-19T02:28:35.727Z,11.46
2022-10-19T02:31:38.766Z,11.43
2022-10-19T02:34:42.242Z,11.51
2022-10-19T02:37:45.345Z,11.36
2022-10-19T02:41:06.949Z,11.43
2022-10-19T02:44:15.922Z,11.43
2022-10-19T02:47:26.618Z,11.30
2022-10-19T02:50:29.710Z,11.32
2022-10-19T02:53:32.439Z,11.35
2022-10-19T02:56:36.295Z,11.28
2022-10-19T02:59:39.014Z,11.29
2022-10-19T03:02:42.201Z,11.40
2022-10-19T03:05:44.964Z,11.39
2022-10-19T03:08:48.202Z,11.28
2022-10-19T03:11:51.229Z,11.22
2022-10-19T03:14:54.385Z,11.27
2022-10-19T03:17:57.211Z,11.14
2022-10-19T03:21:05.491Z,11.21
2022-10-19T03:24:08.204Z,11.06
2022-10-19T03:27:11.278Z,10.86
2022-10-19T03:30:14.124Z,10.81
2022-10-19T03:33:17.215Z,10.88
2022-10-19T03:36:25.587Z,10.79
2022-10-19T03:39:28.633Z,10.66
2022-10-19T03:42:31.472Z,10.60
2022-10-19T03:45:35.357Z,10.48
2022-10-19T03:48:38.277Z,10.42
2022-10-19T03:51:41.769Z,10.36
2022-10-19T03:54:44.903Z,10.32
2022-10-19T03:57:47.965Z,10.30
2022-10-19T04:00:50.821Z,10.13
2022-10-19T04:03:55.112Z,10.06
2022-10-19T04:06:57.999Z,9.90
2022-10-19T04:10:00.996Z,9.94
2022-10-19T04:13:03.723Z,9.89
2022-10-19T04:16:07.855Z,9.88
2022-10-19T04:19:14.417Z,9.75
2022-10-19T04:22:17.489Z,9.59
2022-10-19T04:25:21.499Z,9.53
2022-10-19T04:28:24.642Z,9.54
2022-10-19T04:31:29.195Z,9.49
2022-10-19T04:34:35.221Z,9.50
2022-10-19T04:37:40.425Z,9.34
2022-10-19T04:40:43.423Z,9.39
2022-10-19T04:43:46.651Z,9.32
2022-10-19T04:46:49.668Z,9.30
2022-10-19T04:49:52.691Z,9.27
2022-10-19T04:52:55.778Z,9.25
2022-10-19T04:55:58.574Z,9.22
2022-10-19T04:59:01.863Z,9.20
2022-10-19T05:02:04.722Z,9.17
2022-10-19T05:05:08.208Z,9.16
2022-10-19T05:08:11.659Z,9.09
2022-10-19T05:11:15.887Z,9.17
2022-10-19T05:14:18.626Z,9.09
2022-10-19T05:17:22.305Z,9.14
2022-10-19T05:20:25.376Z,9.11
2022-10-19T05:23:29.391Z,9.06
2022-10-19T05:26:32.182Z,9.15
2022-10-19T05:29:35.354Z,9.19
2022-10-19T05:32:38.069Z,9.18
2022-10-19T05:35:41.027Z,9.09
2022-10-19T05:38:45.183Z,8.90
2022-10-19T05:41:48.371Z,9.19
2022-10-19T05:44:51.405Z,9.22
2022-10-19T05:47:54.388Z,9.08
2022-10-19T05:50:57.670Z,9.21
2022-10-19T05:54:00.777Z,9.25
2022-10-19T05:57:04.343Z,9.32
2022-10-19T06:00:07.992Z,9.41
2022-10-19T06:03:15.667Z,9.40
2022-10-19T06:06:19.231Z,9.44
2022-10-19T06:09:22.003Z,9.48
2022-10-19T06:12:25.255Z,9.45
2022-10-19T06:15:27.999Z,9.42
2022-10-19T06:18:31.041Z,9.45
2022-10-19T06:21:34.812Z,9.55
2022-10-19T06:24:37.810Z,9.54
2022-10-19T06:27:40.607Z,9.81
2022-10-19T06:30:43.807Z,9.64
2022-10-19T06:33:49.221Z,9.86
2022-10-19T06:36:53.064Z,10.00
2022-10-19T06:39:56.825Z,10.06
2022-10-19T06:42:59.976Z,10.05
2022-10-19T06:46:08.515Z,10.13
2022-10-19T06:49:13.418Z,9.97
2022-10-19T06:52:16.151Z,10.37
2022-10-19T06:55:20.247Z,10.44
2022-10-19T06:58:22.976Z,10.64
2022-10-19T07:01:26.126Z,10.59
2022-10-19T07:04:29.416Z,10.71
2022-10-19T07:07:33.263Z,10.81
2022-10-19T07:10:37.112Z,11.01
2022-10-19T07:13:40.488Z,11.29
2022-10-19T07:16:43.396Z,11.32
2022-10-19T07:19:46.370Z,11.56
2022-10-19T07:22:49.194Z,11.61
2022-10-19T07:25:53.695Z,11.80
2022-10-19T07:28:57.702Z,11.93
2022-10-19T07:32:01.860Z,12.08
2022-10-19T07:35:06.749Z,12.11
2022-10-19T07:38:09.681Z,12.20
2022-10-19T07:41:15.913Z,11.89
2022-10-19T07:44:19.730Z,12.29
2022-10-19T07:47:22.462Z,12.24
2022-10-19T07:50:27.443Z,12.59
2022-10-19T07:53:30.229Z,12.70
2022-10-19T07:56:33.264Z,12.74
2022-10-19T07:59:36.442Z,12.89
2022-10-19T08:02:57.866Z,13.08
2022-10-19T08:06:08.579Z,13.31
2022-10-19T08:09:15.661Z,13.38
2022-10-19T08:12:26.004Z,13.52
2022-10-19T08:15:30.273Z,13.64
2022-10-19T08:18:33.422Z,13.74
2022-10-19T08:21:37.524Z,14.07
2022-10-19T08:24:40.610Z,14.27
2022-10-19T08:27:43.415Z,14.45
2022-10-19T08:30:46.649Z,14.71
2022-10-19T08:33:50.713Z,14.87
2022-10-19T08:36:54.926Z,14.94
2022-10-19T08:39:57.741Z,15.20
2022-10-19T08:43:05.824Z,15.22
2022-10-19T08:46:20.279Z,15.18
2022-10-19T08:49:26.310Z,15.42
2022-10-19T08:52:34.726Z,15.46
2022-10-19T08:56:03.625Z,15.50
2022-10-19T08:59:48.452Z,15.73
2022-10-19T09:03:37.887Z,15.90
2022-10-19T09:06:52.454Z,15.52
2022-10-19T09:09:59.601Z,15.72
2022-10-19T09:13:07.671Z,15.93
2022-10-19T09:16:19.566Z,16.00
2022-10-19T09:19:26.167Z,16.13
2022-10-19T09:22:35.281Z,16.29
2022-10-19T09:25:38.809Z,16.22
2022-10-19T09:28:58.605Z,16.35
2022-10-19T09:32:05.225Z,16.56
2022-10-19T09:35:19.331Z,16.65
2022-10-19T09:38:24.535Z,16.73
2022-10-19T09:41:27.654Z,16.84
2022-10-19T09:44:30.707Z,16.91
2022-10-19T09:47:41.255Z,16.98
2022-10-19T09:50:44.958Z,16.90
2022-10-19T09:53:51.935Z,17.06
2022-10-19T09:56:56.444Z,17.29
2022-10-19T10:00:04.928Z,17.27
2022-10-19T10:03:43.797Z,17.05
2022-10-19T10:06:48.393Z,17.21
2022-10-19T10:09:52.619Z,17.23
2022-10-19T10:12:55.743Z,17.32
2022-10-19T10:16:02.048Z,17.51
2022-10-19T10:19:12.857Z,17.54
2022-10-19T10:22:52.152Z,17.29
2022-10-19T10:25:59.673Z,17.32
2022-10-19T10:29:02.617Z,17.02
2022-10-19T10:32:09.416Z,16.90
2022-10-19T10:35:26.602Z,17.07
2022-10-19T10:38:34.021Z,17.16
2022-10-19T10:41:39.903Z,17.23
2022-10-19T10:44:49.022Z,17.40
2022-10-19T10:47:53.735Z,17.47
2022-10-19T10:50:57.868Z,17.44
2022-10-19T10:54:31.704Z,17.53
2022-10-19T10:57:41.629Z,17.19
2022-10-19T11:00:45.228Z,16.67
2022-10-19T11:03:53.371Z,16.91
2022-10-19T11:07:02.636Z,17.04
2022-10-19T11:10:14.674Z,17.21
2022-10-19T11:13:26.760Z,16.77
2022-10-19T11:16:34.167Z,17.39
2022-10-19T11:19:42.368Z,17.13
2022-10-19T11:22:53.199Z,17.23
2022-10-19T11:26:09.495Z,16.70
2022-10-19T11:29:31.483Z,17.21
2022-10-19T11:33:06.789Z,17.94
2022-10-19T11:36:23.178Z,18.60
2022-10-19T11:39:39.566Z,18.29
2022-10-19T11:42:54.448Z,18.74
2022-10-19T11:46:14.023Z,18.75
2022-10-19T11:49:31.862Z,18.41
2022-10-19T11:52:46.507Z,19.30
2022-10-19T11:56:10.867Z,19.26
2022-10-19T12:02:45.723Z,18.77
2022-10-19T12:06:09.386Z,19.40
2022-10-19T12:09:36.228Z,19.64
2022-10-19T12:12:42.900Z,19.44
2022-10-19T12:15:49.482Z,19.83
2022-10-19T12:18:55.984Z,19.72
2022-10-19T12:22:01.082Z,20.05
2022-10-19T12:25:04.930Z,19.91
2022-10-19T12:28:11.334Z,19.50
2022-10-19T12:31:14.938Z,19.83
2022-10-19T12:34:39.625Z,21.18
2022-10-19T12:37:59.991Z,20.83
2022-10-19T12:41:21.005Z,21.02
2022-10-19T12:45:01.416Z,20.29
2022-10-19T12:48:11.265Z,19.66
2022-10-19T12:51:15.978Z,19.52
2022-10-19T12:54:25.712Z,19.41
2022-10-19T12:57:29.755Z,20.20
2022-10-19T13:00:38.136Z,20.76
2022-10-19T13:03:43.075Z,20.84
2022-10-19T13:07:01.642Z,20.21
2022-10-19T13:10:07.911Z,20.81
2022-10-19T13:13:51.221Z,19.85
2022-10-19T13:17:02.557Z,19.46
2022-10-19T13:20:14.671Z,18.87
2022-10-19T13:23:17.809Z,18.98
2022-10-19T13:26:31.203Z,20.69
2022-10-19T13:29:37.281Z,20.54
2022-10-19T13:32:44.698Z,19.37
2022-10-19T13:35:47.857Z,19.27
2022-10-19T13:39:00.620Z,20.35
2022-10-19T13:42:03.996Z,19.63
2022-10-19T13:45:07.349Z,19.42
2022-10-19T13:48:26.159Z,19.28
2022-10-19T13:52:09.898Z,19.19
2022-10-19T13:55:22.055Z,19.38
2022-10-19T13:59:03.388Z,19.60
2022-10-19T14:02:22.754Z,19.10
2022-10-19T14:05:35.937Z,18.71
2022-10-19T14:09:00.603Z,20.25
2022-10-19T14:12:26.912Z,18.91
2022-10-19T14:15:34.992Z,19.11
2022-10-19T14:18:38.262Z,20.02
2022-10-19T14:21:41.386Z,20.12
2022-10-19T14:24:44.703Z,20.09
2022-10-19T14:27:48.917Z,19.64
2022-10-19T14:30:56.674Z,19.91
2022-10-19T14:34:01.869Z,19.46
2022-10-19T14:37:05.116Z,18.11
2022-10-19T14:40:26.721Z,17.66
2022-10-19T14:43:34.521Z,18.18
2022-10-19T14:46:38.402Z,18.96
2022-10-19T14:49:41.570Z,19.19
2022-10-19T14:52:44.757Z,18.56
2022-10-19T14:55:48.334Z,18.39
2022-10-19T14:58:55.492Z,18.28
2022-10-19T15:02:01.403Z,18.26
2022-10-19T15:05:05.876Z,18.54
2022-10-19T15:08:11.165Z,18.03
2022-10-19T15:11:22.442Z,18.16
2022-10-19T15:14:30.766Z,18.16
2022-10-19T15:17:36.333Z,17.65
2022-10-19T15:20:54.998Z,17.71
2022-10-19T15:24:34.908Z,17.54
2022-10-19T15:27:40.095Z,17.01
2022-10-19T15:30:42.791Z,16.39
2022-10-19T15:33:56.547Z,16.04
2022-10-19T15:37:01.045Z,15.39
2022-10-19T15:40:13.396Z,15.46
2022-10-19T15:43:34.401Z,15.65
2022-10-19T15:46:49.621Z,15.38
2022-10-19T15:49:58.632Z,15.15
2022-10-19T15:53:01.894Z,14.48
2022-10-19T15:56:04.966Z,14.56
2022-10-19T15:59:24.563Z,14.19
2022-10-19T16:02:27.437Z,14.07
2022-10-19T16:05:31.989Z,14.01
2022-10-19T16:08:34.871Z,13.93
2022-10-19T16:11:38.019Z,14.04
2022-10-19T16:14:40.824Z,13.83
2022-10-19T16:17:46.140Z,13.83
2022-10-19T16:20:49.579Z,13.78
2022-10-19T16:23:53.285Z,13.68
2022-10-19T16:26:56.781Z,13.54
2022-10-19T16:30:00.924Z,13.69
2022-10-19T16:33:04.076Z,13.67
2022-10-19T16:36:08.238Z,13.63
2022-10-19T16:39:11.513Z,13.63
2022-10-19T16:42:15.194Z,13.54
2022-10-19T16:45:18.602Z,13.16
2022-10-19T16:48:24.103Z,13.10
2022-10-19T16:51:34.728Z,13.02
2022-10-19T16:54:38.628Z,12.81
2022-10-19T16:57:41.528Z,12.90
2022-10-19T17:00:47.068Z,12.76
2022-10-19T17:03:50.241Z,12.81
2022-10-19T17:06:53.865Z,12.71
2022-10-19T17:09:57.857Z,12.68
2022-10-19T17:13:01.709Z,12.55
2022-10-19T17:16:12.028Z,12.56
2022-10-19T17:19:17.861Z,12.45
2022-10-19T17:22:22.085Z,12.32
2022-10-19T17:25:26.839Z,12.39
2022-10-19T17:28:29.875Z,12.22
2022-10-19T17:31:35.358Z,12.32
2022-10-19T17:34:41.463Z,12.21
2022-10-19T17:37:45.301Z,12.21
2022-10-19T17:40:48.427Z,12.10
2022-10-19T17:43:52.537Z,11.91
2022-10-19T17:46:56.251Z,11.76
2022-10-19T17:50:00.700Z,11.75
2022-10-19T17:53:04.346Z,11.80
2022-10-19T17:56:08.472Z,11.85
2022-10-19T17:59:11.981Z,11.82
2022-10-19T18:02:16.304Z,11.81
2022-10-19T18:05:20.079Z,11.75
2022-10-19T18:08:23.224Z,11.78
2022-10-19T18:11:40.528Z,11.66
2022-10-19T18:14:45.323Z,11.60
2022-10-19T18:17:50.173Z,11.53
2022-10-19T18:20:53.737Z,11.44
2022-10-19T18:23:59.391Z,11.53
2022-10-19T18:27:02.936Z,11.53
2022-10-19T18:30:06.760Z,11.12
2022-10-19T18:33:10.232Z,11.22
2022-10-19T18:36:15.548Z,11.24
2022-10-19T18:39:20.233Z,11.07
2022-10-19T18:42:24.784Z,11.05
2022-10-19T18:45:29.115Z,11.10
2022-10-19T18:48:33.591Z,11.09
2022-10-19T18:51:40.654Z,11.14
2022-10-19T18:54:44.510Z,11.15
2022-10-19T18:57:52.982Z,11.11
2022-10-19T19:01:24.762Z,11.10
2022-10-19T19:04:31.516Z,10.87
2022-10-19T19:07:35.666Z,10.92
2022-10-19T19:10:39.350Z,10.72
2022-10-19T19:13:48.949Z,10.72
2022-10-19T19:16:54.913Z,10.61
2022-10-19T19:19:58.668Z,10.59
2022-10-19T19:23:02.371Z,10.49
2022-10-19T19:26:08.123Z,10.33
2022-10-19T19:29:16.965Z,10.27
2022-10-19T19:32:20.748Z,10.23
2022-10-19T19:35:24.721Z,10.08
2022-10-19T19:38:30.988Z,10.12
2022-10-19T19:41:35.490Z,10.04
2022-10-19T19:44:39.338Z,9.89
2022-10-19T19:47:42.841Z,9.89
2022-10-19T19:50:47.843Z,9.89
2022-10-19T19:53:50.957Z,9.84
2022-10-19T19:56:54.755Z,9.66
2022-10-19T19:59:58.888Z,9.51
2022-10-19T20:03:02.744Z,9.42
2022-10-19T20:06:07.771Z,9.23
2022-10-19T20:09:11.829Z,9.18
2022-10-19T20:12:15.811Z,8.97
2022-10-19T20:15:20.719Z,8.92
2022-10-19T20:18:24.502Z,8.83
2022-10-19T20:21:28.250Z,8.75
2022-10-19T20:24:37.639Z,8.61
2022-10-19T20:27:41.207Z,8.52
2022-10-19T20:30:45.572Z,8.43
2022-10-19T20:33:49.084Z,8.37
2022-10-19T20:36:53.986Z,8.25
2022-10-19T20:39:58.140Z,8.16
2022-10-19T20:43:01.568Z,8.08
2022-10-19T20:46:11.211Z,7.98
2022-10-19T20:49:15.213Z,7.95
2022-10-19T20:52:18.416Z,7.89
2022-10-19T20:55:23.147Z,7.87
2022-10-19T20:58:26.066Z,7.76
2022-10-19T21:01:32.053Z,7.80
2022-10-19T21:04:36.275Z,7.76
2022-10-19T21:07:39.681Z,7.77
2022-10-19T21:10:42.848Z,7.79
2022-10-19T21:13:46.555Z,7.63
2022-10-19T21:16:49.432Z,7.79
2022-10-19T21:19:55.024Z,7.80
2022-10-19T21:22:59.815Z,7.81
2022-10-19T21:26:02.914Z,7.85
2022-10-19T21:29:09.620Z,7.81
2022-10-19T21:32:12.766Z,7.86
2022-10-19T21:35:15.567Z,7.83
2022-10-19T21:38:18.645Z,7.79
2022-10-19T21:41:25.395Z,7.59
2022-10-19T21:44:29.676Z,7.52
2022-10-19T21:47:32.914Z,7.44
2022-10-19T21:50:36.259Z,7.42
2022-10-19T21:53:39.682Z,7.34
2022-10-19T21:56:43.231Z,7.13
2022-10-19T21:59:46.272Z,7.11
2022-10-19T22:02:49.341Z,7.14
2022-10-19T22:05:52.717Z,7.07
2022-10-19T22:08:56.007Z,7.05
2022-10-19T22:11:59.211Z,6.96
2022-10-19T22:15:01.985Z,6.95
2022-10-19T22:18:05.084Z,6.96
2022-10-19T22:21:11.299Z,6.97
2022-10-19T22:24:15.510Z,6.98
2022-10-19T22:27:18.270Z,6.92
2022-10-19T22:30:21.359Z,6.80
2022-10-19T22:33:25.679Z,6.78
2022-10-19T22:36:28.744Z,6.80
2022-10-19T22:39:32.916Z,6.79
2022-10-19T22:42:36.309Z,6.75
2022-10-19T22:45:39.888Z,6.75
2022-10-19T22:48:42.995Z,6.80
2022-10-19T22:51:45.874Z,6.81
2022-10-19T22:54:50.683Z,6.79
2022-10-19T22:57:53.549Z,6.77
2022-10-19T23:01:07.775Z,6.73
2022-10-19T23:04:10.632Z,6.63
2022-10-19T23:07:13.873Z,6.53
2022-10-19T23:10:17.075Z,6.52
2022-10-19T23:13:20.262Z,6.49
2022-10-19T23:16:23.253Z,6.32
2022-10-19T23:19:26.551Z,6.28
2022-10-19T23:22:29.707Z,6.26
2022-10-19T23:28:37.909Z,6.18
2022-10-19T23:31:41.337Z,6.09
2022-10-19T23:34:47.449Z,6.06
2022-10-19T23:37:51.661Z,6.05
2022-10-19T23:40:54.861Z,6.00
2022-10-19T23:43:57.950Z,5.94
2022-10-19T23:47:01.509Z,5.95
2022-10-19T23:50:04.759Z,5.96
2022-10-19T23:53:07.619Z,5.91
2022-10-19T23:56:30.834Z,5.96
2022-10-19T23:59:33.688Z,5.91
